Terminal Aerodrome Forecast
Issued by NWS

Home | Current Version | Previous Version | Text Only | Print | Product List | Glossary On
Versions: 1 2 3 4 5 6 7 8 9 10 11 12 13 14 15 16 17 18 19 20 21 22 23 24 25 26 27 28 29 30
838
FTUS43 KDLH 291233 AAA
TAFHIB
TAF AMD
KHIB 291233Z 2913/3012 28005KT 5SM -RA BR SCT007 BKN012
      TEMPO 2913/2915 1 1/2SM -DZ BR OVC006
     FM291600 30009KT 5SM BR BKN010
     FM291900 30012G18KT P6SM VCSH BKN025
     FM292100 30012G19KT P6SM VCSH BKN040
     FM300000 30005KT P6SM SCT060=

USA.gov is the U.S. government's official web portal to all federal, state and local government web resources and services.